sensor_id;sensor_type;location;lat;lon;timestamp;P1;durP1;ratioP1;P2;durP2;ratioP2
58615;SDS011;44385;51.992;4.206;2023-05-16T00:01:47;11.85;;;2.63;;
58615;SDS011;44385;51.992;4.206;2023-05-16T00:04:14;10.57;;;3.38;;
58615;SDS011;44385;51.992;4.206;2023-05-16T00:06:41;9.05;;;2.55;;
58615;SDS011;44385;51.992;4.206;2023-05-16T00:09:08;18.75;;;2.53;;
58615;SDS011;44385;51.992;4.206;2023-05-16T00:11:34;11.18;;;2.22;;
58615;SDS011;44385;51.992;4.206;2023-05-16T00:14:01;14.73;;;3.25;;
58615;SDS011;44385;51.992;4.206;2023-05-16T00:16:28;10.75;;;2.58;;
58615;SDS011;44385;51.992;4.206;2023-05-16T00:18:56;17.70;;;2.72;;
58615;SDS011;44385;51.992;4.206;2023-05-16T00:21:25;15.25;;;2.80;;
58615;SDS011;44385;51.992;4.206;2023-05-16T00:23:51;12.80;;;2.42;;
58615;SDS011;44385;51.992;4.206;2023-05-16T00:26:18;10.75;;;2.53;;
58615;SDS011;44385;51.992;4.206;2023-05-16T00:28:44;11.43;;;2.58;;
58615;SDS011;44385;51.992;4.206;2023-05-16T00:31:12;9.90;;;2.45;;
58615;SDS011;44385;51.992;4.206;2023-05-16T00:33:38;13.20;;;2.50;;
58615;SDS011;44385;51.992;4.206;2023-05-16T00:36:06;10.07;;;2.33;;
58615;SDS011;44385;51.992;4.206;2023-05-16T00:38:33;10.40;;;2.13;;
58615;SDS011;44385;51.992;4.206;2023-05-16T00:40:59;12.13;;;2.40;;
58615;SDS011;44385;51.992;4.206;2023-05-16T00:43:26;11.00;;;2.50;;
58615;SDS011;44385;51.992;4.206;2023-05-16T00:45:53;11.70;;;2.83;;
58615;SDS011;44385;51.992;4.206;2023-05-16T00:48:19;16.05;;;2.45;;
58615;SDS011;44385;51.992;4.206;2023-05-16T00:50:46;8.73;;;2.83;;
58615;SDS011;44385;51.992;4.206;2023-05-16T00:53:15;13.65;;;2.83;;
58615;SDS011;44385;51.992;4.206;2023-05-16T00:55:41;12.90;;;2.28;;
58615;SDS011;44385;51.992;4.206;2023-05-16T00:58:08;8.90;;;2.55;;
58615;SDS011;44385;51.992;4.206;2023-05-16T01:00:38;16.38;;;2.42;;
58615;SDS011;44385;51.992;4.206;2023-05-16T01:03:04;8.43;;;1.90;;
58615;SDS011;44385;51.992;4.206;2023-05-16T01:05:31;9.80;;;2.05;;
58615;SDS011;44385;51.992;4.206;2023-05-16T01:07:57;15.48;;;2.78;;
58615;SDS011;44385;51.992;4.206;2023-05-16T01:10:25;10.55;;;2.40;;
58615;SDS011;44385;51.992;4.206;2023-05-16T01:12:56;7.65;;;1.90;;
58615;SDS011;44385;51.992;4.206;2023-05-16T01:15:26;12.50;;;2.33;;
58615;SDS011;44385;51.992;4.206;2023-05-16T01:17:54;15.20;;;2.17;;
58615;SDS011;44385;51.992;4.206;2023-05-16T01:20:27;11.38;;;2.15;;
58615;SDS011;44385;51.992;4.206;2023-05-16T01:23:02;11.75;;;3.20;;
58615;SDS011;44385;51.992;4.206;2023-05-16T01:25:34;13.90;;;3.33;;
58615;SDS011;44385;51.992;4.206;2023-05-16T01:28:06;14.80;;;2.30;;
58615;SDS011;44385;51.992;4.206;2023-05-16T01:30:34;14.82;;;2.88;;
58615;SDS011;44385;51.992;4.206;2023-05-16T01:33:01;7.70;;;2.17;;
58615;SDS011;44385;51.992;4.206;2023-05-16T01:35:27;14.85;;;2.33;;
58615;SDS011;44385;51.992;4.206;2023-05-16T01:37:55;12.98;;;2.75;;
58615;SDS011;44385;51.992;4.206;2023-05-16T01:40:25;8.82;;;2.63;;
58615;SDS011;44385;51.992;4.206;2023-05-16T01:42:55;10.98;;;2.33;;
58615;SDS011;44385;51.992;4.206;2023-05-16T01:45:25;14.82;;;2.45;;
58615;SDS011;44385;51.992;4.206;2023-05-16T01:47:54;16.40;;;2.83;;
58615;SDS011;44385;51.992;4.206;2023-05-16T01:50:24;15.88;;;2.95;;
58615;SDS011;44385;51.992;4.206;2023-05-16T01:52:52;10.93;;;2.70;;
58615;SDS011;44385;51.992;4.206;2023-05-16T01:57:47;11.60;;;2.72;;
58615;SDS011;44385;51.992;4.206;2023-05-16T02:00:14;9.55;;;2.45;;
58615;SDS011;44385;51.992;4.206;2023-05-16T02:02:42;8.85;;;2.25;;
58615;SDS011;44385;51.992;4.206;2023-05-16T02:05:08;16.70;;;2.28;;
58615;SDS011;44385;51.992;4.206;2023-05-16T02:07:43;8.82;;;2.13;;
58615;SDS011;44385;51.992;4.206;2023-05-16T02:10:10;10.05;;;2.28;;
58615;SDS011;44385;51.992;4.206;2023-05-16T02:12:38;10.90;;;2.83;;
58615;SDS011;44385;51.992;4.206;2023-05-16T02:15:05;9.48;;;1.95;;
58615;SDS011;44385;51.992;4.206;2023-05-16T02:17:31;10.10;;;2.67;;
58615;SDS011;44385;51.992;4.206;2023-05-16T02:19:59;12.23;;;3.67;;
58615;SDS011;44385;51.992;4.206;2023-05-16T02:22:30;10.27;;;2.30;;
58615;SDS011;44385;51.992;4.206;2023-05-16T02:24:57;9.68;;;2.65;;
58615;SDS011;44385;51.992;4.206;2023-05-16T02:27:23;13.73;;;3.03;;
58615;SDS011;44385;51.992;4.206;2023-05-16T02:29:50;11.55;;;2.60;;
58615;SDS011;44385;51.992;4.206;2023-05-16T02:32:16;14.27;;;2.67;;
58615;SDS011;44385;51.992;4.206;2023-05-16T02:34:43;8.70;;;2.45;;
58615;SDS011;44385;51.992;4.206;2023-05-16T02:37:11;11.40;;;2.33;;
58615;SDS011;44385;51.992;4.206;2023-05-16T02:39:39;10.90;;;2.08;;
58615;SDS011;44385;51.992;4.206;2023-05-16T02:42:05;9.30;;;2.00;;
58615;SDS011;44385;51.992;4.206;2023-05-16T02:44:32;13.75;;;2.33;;
58615;SDS011;44385;51.992;4.206;2023-05-16T02:46:59;11.15;;;2.33;;
58615;SDS011;44385;51.992;4.206;2023-05-16T02:49:25;14.88;;;2.75;;
58615;SDS011;44385;51.992;4.206;2023-05-16T02:51:51;11.52;;;2.45;;
58615;SDS011;44385;51.992;4.206;2023-05-16T02:54:19;11.15;;;2.42;;
58615;SDS011;44385;51.992;4.206;2023-05-16T02:56:46;10.55;;;2.40;;
58615;SDS011;44385;51.992;4.206;2023-05-16T02:59:12;6.95;;;2.35;;
58615;SDS011;44385;51.992;4.206;2023-05-16T03:01:39;8.55;;;2.40;;
58615;SDS011;44385;51.992;4.206;2023-05-16T03:04:05;17.55;;;2.85;;
58615;SDS011;44385;51.992;4.206;2023-05-16T03:06:32;13.73;;;2.20;;
58615;SDS011;44385;51.992;4.206;2023-05-16T03:08:58;11.25;;;2.28;;
58615;SDS011;44385;51.992;4.206;2023-05-16T03:11:26;10.52;;;2.67;;
58615;SDS011;44385;51.992;4.206;2023-05-16T03:13:53;10.95;;;2.67;;
58615;SDS011;44385;51.992;4.206;2023-05-16T03:16:19;11.07;;;2.40;;
58615;SDS011;44385;51.992;4.206;2023-05-16T03:18:46;11.77;;;2.70;;
58615;SDS011;44385;51.992;4.206;2023-05-16T03:21:12;9.00;;;2.17;;
58615;SDS011;44385;51.992;4.206;2023-05-16T03:23:39;10.25;;;2.45;;
58615;SDS011;44385;51.992;4.206;2023-05-16T03:26:05;12.68;;;2.78;;
58615;SDS011;44385;51.992;4.206;2023-05-16T03:28:33;13.98;;;2.60;;
58615;SDS011;44385;51.992;4.206;2023-05-16T03:30:59;13.27;;;3.22;;
58615;SDS011;44385;51.992;4.206;2023-05-16T03:33:26;8.90;;;2.70;;
58615;SDS011;44385;51.992;4.206;2023-05-16T03:35:52;8.75;;;1.90;;
58615;SDS011;44385;51.992;4.206;2023-05-16T03:38:19;10.70;;;2.45;;
58615;SDS011;44385;51.992;4.206;2023-05-16T03:40:45;11.07;;;2.47;;
58615;SDS011;44385;51.992;4.206;2023-05-16T03:43:12;8.15;;;2.55;;
58615;SDS011;44385;51.992;4.206;2023-05-16T03:45:40;7.30;;;2.35;;
58615;SDS011;44385;51.992;4.206;2023-05-16T03:48:07;13.20;;;2.30;;
58615;SDS011;44385;51.992;4.206;2023-05-16T03:50:33;10.82;;;2.28;;
58615;SDS011;44385;51.992;4.206;2023-05-16T03:53:01;7.50;;;2.33;;
58615;SDS011;44385;51.992;4.206;2023-05-16T03:55:28;12.07;;;2.88;;
58615;SDS011;44385;51.992;4.206;2023-05-16T03:57:55;8.65;;;1.80;;
58615;SDS011;44385;51.992;4.206;2023-05-16T04:00:21;4.45;;;1.70;;
58615;SDS011;44385;51.992;4.206;2023-05-16T04:02:50;9.90;;;2.75;;
58615;SDS011;44385;51.992;4.206;2023-05-16T04:05:16;5.63;;;1.73;;
58615;SDS011;44385;51.992;4.206;2023-05-16T04:07:43;10.02;;;1.90;;
58615;SDS011;44385;51.992;4.206;2023-05-16T04:10:09;11.90;;;2.05;;
58615;SDS011;44385;51.992;4.206;2023-05-16T04:12:38;7.35;;;1.95;;
58615;SDS011;44385;51.992;4.206;2023-05-16T04:15:05;12.55;;;1.95;;
58615;SDS011;44385;51.992;4.206;2023-05-16T04:17:32;10.00;;;2.00;;
58615;SDS011;44385;51.992;4.206;2023-05-16T04:20:00;9.60;;;2.05;;
58615;SDS011;44385;51.992;4.206;2023-05-16T04:22:26;10.90;;;2.10;;
58615;SDS011;44385;51.992;4.206;2023-05-16T04:24:53;9.80;;;2.00;;
58615;SDS011;44385;51.992;4.206;2023-05-16T04:27:19;14.73;;;2.53;;
58615;SDS011;44385;51.992;4.206;2023-05-16T04:29:46;8.52;;;2.30;;
58615;SDS011;44385;51.992;4.206;2023-05-16T04:32:12;7.80;;;1.55;;
58615;SDS011;44385;51.992;4.206;2023-05-16T04:34:39;9.10;;;1.42;;
58615;SDS011;44385;51.992;4.206;2023-05-16T04:37:09;9.82;;;2.22;;
58615;SDS011;44385;51.992;4.206;2023-05-16T04:39:36;8.02;;;1.80;;
58615;SDS011;44385;51.992;4.206;2023-05-16T04:42:04;5.28;;;1.83;;
58615;SDS011;44385;51.992;4.206;2023-05-16T04:44:30;8.98;;;2.00;;
58615;SDS011;44385;51.992;4.206;2023-05-16T04:46:57;10.82;;;2.38;;
58615;SDS011;44385;51.992;4.206;2023-05-16T04:49:23;11.25;;;2.75;;
58615;SDS011;44385;51.992;4.206;2023-05-16T04:51:50;7.93;;;1.83;;
58615;SDS011;44385;51.992;4.206;2023-05-16T04:54:18;9.73;;;1.85;;
58615;SDS011;44385;51.992;4.206;2023-05-16T04:56:44;8.07;;;1.60;;
58615;SDS011;44385;51.992;4.206;2023-05-16T04:59:11;7.10;;;1.92;;
58615;SDS011;44385;51.992;4.206;2023-05-16T05:01:39;8.93;;;2.25;;
58615;SDS011;44385;51.992;4.206;2023-05-16T05:04:05;7.95;;;1.63;;
58615;SDS011;44385;51.992;4.206;2023-05-16T05:06:32;9.98;;;2.28;;
58615;SDS011;44385;51.992;4.206;2023-05-16T05:08:59;4.50;;;1.40;;
58615;SDS011;44385;51.992;4.206;2023-05-16T05:11:26;7.60;;;1.92;;
58615;SDS011;44385;51.992;4.206;2023-05-16T05:13:53;6.57;;;1.40;;
58615;SDS011;44385;51.992;4.206;2023-05-16T05:16:19;8.65;;;1.92;;
58615;SDS011;44385;51.992;4.206;2023-05-16T05:18:46;7.28;;;1.58;;
58615;SDS011;44385;51.992;4.206;2023-05-16T05:21:12;9.93;;;1.63;;
58615;SDS011;44385;51.992;4.206;2023-05-16T05:23:39;9.82;;;1.83;;
58615;SDS011;44385;51.992;4.206;2023-05-16T05:26:05;10.88;;;2.83;;
58615;SDS011;44385;51.992;4.206;2023-05-16T05:28:33;7.07;;;1.90;;
58615;SDS011;44385;51.992;4.206;2023-05-16T05:31:01;6.80;;;1.70;;
58615;SDS011;44385;51.992;4.206;2023-05-16T05:33:29;6.65;;;1.58;;
58615;SDS011;44385;51.992;4.206;2023-05-16T05:35:55;10.30;;;1.50;;
58615;SDS011;44385;51.992;4.206;2023-05-16T05:38:22;7.32;;;2.08;;
58615;SDS011;44385;51.992;4.206;2023-05-16T05:40:49;8.52;;;1.67;;
58615;SDS011;44385;51.992;4.206;2023-05-16T05:43:15;6.80;;;1.60;;
58615;SDS011;44385;51.992;4.206;2023-05-16T05:45:43;7.55;;;1.77;;
58615;SDS011;44385;51.992;4.206;2023-05-16T05:48:10;6.80;;;1.77;;
58615;SDS011;44385;51.992;4.206;2023-05-16T05:50:38;16.08;;;2.35;;
58615;SDS011;44385;51.992;4.206;2023-05-16T05:53:05;6.03;;;1.60;;
58615;SDS011;44385;51.992;4.206;2023-05-16T05:55:31;7.90;;;1.73;;
58615;SDS011;44385;51.992;4.206;2023-05-16T05:57:57;5.97;;;1.48;;
58615;SDS011;44385;51.992;4.206;2023-05-16T06:00:24;7.93;;;1.88;;
58615;SDS011;44385;51.992;4.206;2023-05-16T06:02:53;8.20;;;1.92;;
58615;SDS011;44385;51.992;4.206;2023-05-16T06:05:19;10.25;;;2.10;;
58615;SDS011;44385;51.992;4.206;2023-05-16T06:07:46;7.30;;;1.90;;
58615;SDS011;44385;51.992;4.206;2023-05-16T06:10:12;6.20;;;1.23;;
58615;SDS011;44385;51.992;4.206;2023-05-16T06:12:39;8.88;;;1.58;;
58615;SDS011;44385;51.992;4.206;2023-05-16T06:15:06;6.72;;;1.75;;
58615;SDS011;44385;51.992;4.206;2023-05-16T06:17:33;7.85;;;1.73;;
58615;SDS011;44385;51.992;4.206;2023-05-16T06:20:01;11.68;;;1.80;;
58615;SDS011;44385;51.992;4.206;2023-05-16T06:22:27;6.93;;;1.55;;
58615;SDS011;44385;51.992;4.206;2023-05-16T06:24:53;9.68;;;1.80;;
58615;SDS011;44385;51.992;4.206;2023-05-16T06:27:20;6.60;;;1.65;;
58615;SDS011;44385;51.992;4.206;2023-05-16T06:29:46;5.25;;;1.88;;
58615;SDS011;44385;51.992;4.206;2023-05-16T06:32:13;6.78;;;1.40;;
58615;SDS011;44385;51.992;4.206;2023-05-16T06:34:39;5.43;;;1.83;;
58615;SDS011;44385;51.992;4.206;2023-05-16T06:37:07;11.27;;;1.83;;
58615;SDS011;44385;51.992;4.206;2023-05-16T06:39:33;5.38;;;1.52;;
58615;SDS011;44385;51.992;4.206;2023-05-16T06:42:00;6.40;;;1.55;;
58615;SDS011;44385;51.992;4.206;2023-05-16T06:44:26;8.77;;;1.65;;
58615;SDS011;44385;51.992;4.206;2023-05-16T06:46:52;11.23;;;2.35;;
58615;SDS011;44385;51.992;4.206;2023-05-16T06:49:19;5.78;;;1.50;;
58615;SDS011;44385;51.992;4.206;2023-05-16T06:51:45;9.70;;;2.10;;
58615;SDS011;44385;51.992;4.206;2023-05-16T06:54:13;12.80;;;1.60;;
58615;SDS011;44385;51.992;4.206;2023-05-16T06:56:40;5.95;;;1.73;;
58615;SDS011;44385;51.992;4.206;2023-05-16T06:59:06;9.77;;;1.45;;
58615;SDS011;44385;51.992;4.206;2023-05-16T07:01:33;5.80;;;1.60;;
58615;SDS011;44385;51.992;4.206;2023-05-16T07:03:59;6.40;;;1.50;;
58615;SDS011;44385;51.992;4.206;2023-05-16T07:06:26;6.70;;;1.48;;
58615;SDS011;44385;51.992;4.206;2023-05-16T07:08:52;7.50;;;2.90;;
58615;SDS011;44385;51.992;4.206;2023-05-16T07:11:20;7.15;;;1.55;;
58615;SDS011;44385;51.992;4.206;2023-05-16T07:13:46;12.52;;;2.25;;
58615;SDS011;44385;51.992;4.206;2023-05-16T07:16:13;4.90;;;1.63;;
58615;SDS011;44385;51.992;4.206;2023-05-16T07:18:39;4.70;;;1.15;;
58615;SDS011;44385;51.992;4.206;2023-05-16T07:21:06;6.43;;;1.20;;
58615;SDS011;44385;51.992;4.206;2023-05-16T07:23:32;8.48;;;1.92;;
58615;SDS011;44385;51.992;4.206;2023-05-16T07:25:59;9.02;;;1.98;;
58615;SDS011;44385;51.992;4.206;2023-05-16T07:28:26;6.97;;;1.23;;
58615;SDS011;44385;51.992;4.206;2023-05-16T07:30:53;9.52;;;2.10;;
58615;SDS011;44385;51.992;4.206;2023-05-16T07:33:22;10.38;;;1.40;;
58615;SDS011;44385;51.992;4.206;2023-05-16T07:35:48;7.57;;;1.67;;
58615;SDS011;44385;51.992;4.206;2023-05-16T07:38:15;5.97;;;1.55;;
58615;SDS011;44385;51.992;4.206;2023-05-16T07:40:41;5.97;;;1.35;;
58615;SDS011;44385;51.992;4.206;2023-05-16T07:43:08;7.40;;;1.25;;
58615;SDS011;44385;51.992;4.206;2023-05-16T07:45:36;8.50;;;1.48;;
58615;SDS011;44385;51.992;4.206;2023-05-16T07:48:06;6.53;;;1.58;;
58615;SDS011;44385;51.992;4.206;2023-05-16T07:50:32;6.40;;;1.48;;
58615;SDS011;44385;51.992;4.206;2023-05-16T07:52:58;7.28;;;1.50;;
58615;SDS011;44385;51.992;4.206;2023-05-16T07:55:25;6.32;;;1.15;;
58615;SDS011;44385;51.992;4.206;2023-05-16T07:57:51;7.78;;;2.13;;
58615;SDS011;44385;51.992;4.206;2023-05-16T08:00:18;2.65;;;0.90;;
58615;SDS011;44385;51.992;4.206;2023-05-16T08:02:47;4.72;;;1.48;;
58615;SDS011;44385;51.992;4.206;2023-05-16T08:05:15;2.83;;;1.13;;
58615;SDS011;44385;51.992;4.206;2023-05-16T08:07:42;9.43;;;1.60;;
58615;SDS011;44385;51.992;4.206;2023-05-16T08:10:08;5.18;;;1.52;;
58615;SDS011;44385;51.992;4.206;2023-05-16T08:12:39;7.72;;;1.50;;
58615;SDS011;44385;51.992;4.206;2023-05-16T08:15:06;4.25;;;1.20;;
58615;SDS011;44385;51.992;4.206;2023-05-16T08:17:33;3.95;;;1.20;;
58615;SDS011;44385;51.992;4.206;2023-05-16T08:20:00;10.05;;;1.58;;
58615;SDS011;44385;51.992;4.206;2023-05-16T08:22:28;6.33;;;1.60;;
58615;SDS011;44385;51.992;4.206;2023-05-16T08:24:54;5.28;;;1.30;;
58615;SDS011;44385;51.992;4.206;2023-05-16T08:27:22;8.90;;;1.35;;
58615;SDS011;44385;51.992;4.206;2023-05-16T08:29:49;6.53;;;1.15;;
58615;SDS011;44385;51.992;4.206;2023-05-16T08:32:18;7.00;;;1.70;;
58615;SDS011;44385;51.992;4.206;2023-05-16T08:34:45;7.00;;;1.40;;
58615;SDS011;44385;51.992;4.206;2023-05-16T08:37:15;8.82;;;2.03;;
58615;SDS011;44385;51.992;4.206;2023-05-16T08:39:42;4.88;;;1.30;;
58615;SDS011;44385;51.992;4.206;2023-05-16T08:42:08;6.07;;;1.33;;
58615;SDS011;44385;51.992;4.206;2023-05-16T08:44:34;4.15;;;1.10;;
58615;SDS011;44385;51.992;4.206;2023-05-16T08:47:02;10.23;;;1.50;;
58615;SDS011;44385;51.992;4.206;2023-05-16T08:49:31;4.35;;;1.52;;
58615;SDS011;44385;51.992;4.206;2023-05-16T08:51:58;4.95;;;1.33;;
58615;SDS011;44385;51.992;4.206;2023-05-16T08:54:28;9.55;;;1.42;;
58615;SDS011;44385;51.992;4.206;2023-05-16T08:56:55;7.07;;;1.55;;
58615;SDS011;44385;51.992;4.206;2023-05-16T08:59:22;5.32;;;1.58;;
58615;SDS011;44385;51.992;4.206;2023-05-16T09:01:49;8.05;;;1.50;;
58615;SDS011;44385;51.992;4.206;2023-05-16T09:04:16;7.72;;;1.55;;
58615;SDS011;44385;51.992;4.206;2023-05-16T09:06:42;4.72;;;1.35;;
58615;SDS011;44385;51.992;4.206;2023-05-16T09:09:09;7.78;;;1.15;;
58615;SDS011;44385;51.992;4.206;2023-05-16T09:11:38;5.03;;;1.30;;
58615;SDS011;44385;51.992;4.206;2023-05-16T09:14:05;8.03;;;1.73;;
58615;SDS011;44385;51.992;4.206;2023-05-16T09:16:31;7.82;;;1.58;;
58615;SDS011;44385;51.992;4.206;2023-05-16T09:18:58;5.05;;;1.40;;
58615;SDS011;44385;51.992;4.206;2023-05-16T09:21:25;3.90;;;1.40;;
58615;SDS011;44385;51.992;4.206;2023-05-16T09:23:52;3.42;;;1.05;;
58615;SDS011;44385;51.992;4.206;2023-05-16T09:26:19;5.10;;;1.52;;
58615;SDS011;44385;51.992;4.206;2023-05-16T09:28:47;11.63;;;1.85;;
58615;SDS011;44385;51.992;4.206;2023-05-16T09:31:19;7.50;;;1.30;;
58615;SDS011;44385;51.992;4.206;2023-05-16T09:33:46;4.35;;;1.33;;
58615;SDS011;44385;51.992;4.206;2023-05-16T09:36:12;6.60;;;1.70;;
58615;SDS011;44385;51.992;4.206;2023-05-16T09:38:40;5.95;;;1.25;;
58615;SDS011;44385;51.992;4.206;2023-05-16T09:41:07;6.45;;;1.52;;
58615;SDS011;44385;51.992;4.206;2023-05-16T09:43:37;6.70;;;1.25;;
58615;SDS011;44385;51.992;4.206;2023-05-16T09:46:05;4.15;;;1.10;;
58615;SDS011;44385;51.992;4.206;2023-05-16T09:48:31;4.88;;;1.10;;
58615;SDS011;44385;51.992;4.206;2023-05-16T09:50:58;7.32;;;1.60;;
58615;SDS011;44385;51.992;4.206;2023-05-16T09:53:28;3.03;;;1.20;;
58615;SDS011;44385;51.992;4.206;2023-05-16T09:55:58;4.00;;;1.48;;
58615;SDS011;44385;51.992;4.206;2023-05-16T09:58:27;5.70;;;1.58;;
58615;SDS011;44385;51.992;4.206;2023-05-16T10:00:53;7.72;;;1.73;;
58615;SDS011;44385;51.992;4.206;2023-05-16T10:03:22;5.55;;;1.75;;
58615;SDS011;44385;51.992;4.206;2023-05-16T10:05:49;4.72;;;1.38;;
58615;SDS011;44385;51.992;4.206;2023-05-16T10:08:17;7.80;;;1.70;;
58615;SDS011;44385;51.992;4.206;2023-05-16T10:10:45;7.07;;;1.70;;
58615;SDS011;44385;51.992;4.206;2023-05-16T10:13:14;9.02;;;1.90;;
58615;SDS011;44385;51.992;4.206;2023-05-16T10:15:41;4.65;;;1.25;;
58615;SDS011;44385;51.992;4.206;2023-05-16T10:18:08;4.68;;;1.02;;
58615;SDS011;44385;51.992;4.206;2023-05-16T10:20:39;4.15;;;1.13;;
58615;SDS011;44385;51.992;4.206;2023-05-16T10:23:09;5.70;;;2.08;;
58615;SDS011;44385;51.992;4.206;2023-05-16T10:25:39;5.22;;;1.38;;
58615;SDS011;44385;51.992;4.206;2023-05-16T10:28:08;4.82;;;1.25;;
58615;SDS011;44385;51.992;4.206;2023-05-16T10:30:34;4.88;;;1.38;;
58615;SDS011;44385;51.992;4.206;2023-05-16T10:33:02;6.10;;;1.42;;
58615;SDS011;44385;51.992;4.206;2023-05-16T10:35:29;3.65;;;1.50;;
58615;SDS011;44385;51.992;4.206;2023-05-16T10:37:58;3.97;;;1.13;;
58615;SDS011;44385;51.992;4.206;2023-05-16T10:40:25;4.10;;;1.50;;
58615;SDS011;44385;51.992;4.206;2023-05-16T10:42:55;3.20;;;0.93;;
58615;SDS011;44385;51.992;4.206;2023-05-16T10:45:22;3.90;;;0.85;;
58615;SDS011;44385;51.992;4.206;2023-05-16T10:47:52;4.88;;;1.02;;
58615;SDS011;44385;51.992;4.206;2023-05-16T10:50:31;4.65;;;1.38;;
58615;SDS011;44385;51.992;4.206;2023-05-16T10:53:13;3.72;;;0.90;;
58615;SDS011;44385;51.992;4.206;2023-05-16T10:55:43;5.25;;;1.23;;
58615;SDS011;44385;51.992;4.206;2023-05-16T10:58:12;5.57;;;1.60;;
58615;SDS011;44385;51.992;4.206;2023-05-16T11:00:43;3.88;;;1.08;;
58615;SDS011;44385;51.992;4.206;2023-05-16T11:03:18;4.80;;;1.73;;
58615;SDS011;44385;51.992;4.206;2023-05-16T11:05:50;4.97;;;1.40;;
58615;SDS011;44385;51.992;4.206;2023-05-16T11:08:19;5.32;;;1.50;;
58615;SDS011;44385;51.992;4.206;2023-05-16T11:10:45;4.20;;;0.95;;
58615;SDS011;44385;51.992;4.206;2023-05-16T11:13:12;3.75;;;1.10;;
58615;SDS011;44385;51.992;4.206;2023-05-16T11:15:43;3.75;;;1.30;;
58615;SDS011;44385;51.992;4.206;2023-05-16T11:18:14;5.18;;;1.30;;
58615;SDS011;44385;51.992;4.206;2023-05-16T11:20:40;5.70;;;1.23;;
58615;SDS011;44385;51.992;4.206;2023-05-16T11:23:17;3.60;;;1.27;;
58615;SDS011;44385;51.992;4.206;2023-05-16T11:25:45;4.82;;;1.38;;
58615;SDS011;44385;51.992;4.206;2023-05-16T11:28:12;2.88;;;1.10;;
58615;SDS011;44385;51.992;4.206;2023-05-16T11:30:41;4.82;;;1.10;;
58615;SDS011;44385;51.992;4.206;2023-05-16T11:33:08;3.40;;;1.05;;
58615;SDS011;44385;51.992;4.206;2023-05-16T11:35:34;3.78;;;1.20;;
58615;SDS011;44385;51.992;4.206;2023-05-16T11:38:01;6.80;;;1.27;;
58615;SDS011;44385;51.992;4.206;2023-05-16T11:40:27;5.60;;;1.30;;
58615;SDS011;44385;51.992;4.206;2023-05-16T11:42:58;6.13;;;1.25;;
58615;SDS011;44385;51.992;4.206;2023-05-16T11:45:24;4.43;;;1.25;;
58615;SDS011;44385;51.992;4.206;2023-05-16T11:47:59;2.65;;;0.85;;
58615;SDS011;44385;51.992;4.206;2023-05-16T11:50:26;6.25;;;1.10;;
58615;SDS011;44385;51.992;4.206;2023-05-16T11:52:53;2.58;;;0.85;;
58615;SDS011;44385;51.992;4.206;2023-05-16T11:55:21;9.43;;;1.48;;
58615;SDS011;44385;51.992;4.206;2023-05-16T11:57:49;4.47;;;0.77;;
58615;SDS011;44385;51.992;4.206;2023-05-16T12:00:18;3.28;;;1.17;;
58615;SDS011;44385;51.992;4.206;2023-05-16T12:02:45;3.75;;;0.93;;
58615;SDS011;44385;51.992;4.206;2023-05-16T12:05:14;1.92;;;0.73;;
58615;SDS011;44385;51.992;4.206;2023-05-16T12:07:41;7.47;;;1.10;;
58615;SDS011;44385;51.992;4.206;2023-05-16T12:10:09;6.13;;;1.40;;
58615;SDS011;44385;51.992;4.206;2023-05-16T12:12:36;4.38;;;1.00;;
58615;SDS011;44385;51.992;4.206;2023-05-16T12:15:04;4.20;;;1.30;;
58615;SDS011;44385;51.992;4.206;2023-05-16T12:17:32;3.78;;;1.20;;
58615;SDS011;44385;51.992;4.206;2023-05-16T12:19:59;2.40;;;0.77;;
58615;SDS011;44385;51.992;4.206;2023-05-16T12:22:26;3.90;;;1.13;;
58615;SDS011;44385;51.992;4.206;2023-05-16T12:24:53;4.45;;;1.10;;
58615;SDS011;44385;51.992;4.206;2023-05-16T12:27:23;4.05;;;1.02;;
58615;SDS011;44385;51.992;4.206;2023-05-16T12:29:50;3.38;;;1.10;;
58615;SDS011;44385;51.992;4.206;2023-05-16T12:32:17;4.32;;;1.02;;
58615;SDS011;44385;51.992;4.206;2023-05-16T12:34:49;1.90;;;0.90;;
58615;SDS011;44385;51.992;4.206;2023-05-16T12:37:17;5.45;;;1.15;;
58615;SDS011;44385;51.992;4.206;2023-05-16T12:39:43;3.00;;;1.23;;
58615;SDS011;44385;51.992;4.206;2023-05-16T12:42:12;4.15;;;1.00;;
58615;SDS011;44385;51.992;4.206;2023-05-16T12:44:39;4.28;;;1.15;;
58615;SDS011;44385;51.992;4.206;2023-05-16T12:47:10;3.33;;;0.75;;
58615;SDS011;44385;51.992;4.206;2023-05-16T12:49:42;5.38;;;1.10;;
58615;SDS011;44385;51.992;4.206;2023-05-16T12:52:10;4.93;;;0.90;;
58615;SDS011;44385;51.992;4.206;2023-05-16T12:54:42;3.50;;;1.20;;
58615;SDS011;44385;51.992;4.206;2023-05-16T12:57:09;3.17;;;0.82;;
58615;SDS011;44385;51.992;4.206;2023-05-16T12:59:36;4.47;;;1.08;;
58615;SDS011;44385;51.992;4.206;2023-05-16T13:02:02;7.00;;;1.10;;
58615;SDS011;44385;51.992;4.206;2023-05-16T13:04:29;3.95;;;1.20;;
58615;SDS011;44385;51.992;4.206;2023-05-16T13:06:55;1.80;;;0.80;;
58615;SDS011;44385;51.992;4.206;2023-05-16T13:09:23;2.83;;;1.23;;
58615;SDS011;44385;51.992;4.206;2023-05-16T13:11:50;4.03;;;0.80;;
58615;SDS011;44385;51.992;4.206;2023-05-16T13:14:17;2.33;;;0.90;;
58615;SDS011;44385;51.992;4.206;2023-05-16T13:16:43;3.33;;;1.20;;
58615;SDS011;44385;51.992;4.206;2023-05-16T13:19:10;1.98;;;1.15;;
58615;SDS011;44385;51.992;4.206;2023-05-16T13:21:37;3.65;;;0.88;;
58615;SDS011;44385;51.992;4.206;2023-05-16T13:24:04;4.93;;;1.08;;
58615;SDS011;44385;51.992;4.206;2023-05-16T13:26:31;5.65;;;1.02;;
58615;SDS011;44385;51.992;4.206;2023-05-16T13:28:59;2.83;;;1.27;;
58615;SDS011;44385;51.992;4.206;2023-05-16T13:31:26;2.92;;;1.02;;
58615;SDS011;44385;51.992;4.206;2023-05-16T13:33:52;4.50;;;1.33;;
58615;SDS011;44385;51.992;4.206;2023-05-16T13:36:19;3.33;;;0.95;;
58615;SDS011;44385;51.992;4.206;2023-05-16T13:38:45;2.63;;;0.90;;
58615;SDS011;44385;51.992;4.206;2023-05-16T13:41:12;3.90;;;1.25;;
58615;SDS011;44385;51.992;4.206;2023-05-16T13:43:40;3.70;;;1.00;;
58615;SDS011;44385;51.992;4.206;2023-05-16T13:46:07;7.30;;;1.65;;
58615;SDS011;44385;51.992;4.206;2023-05-16T13:48:33;5.63;;;1.33;;
58615;SDS011;44385;51.992;4.206;2023-05-16T13:50:59;6.05;;;1.63;;
58615;SDS011;44385;51.992;4.206;2023-05-16T13:53:26;5.20;;;1.05;;
58615;SDS011;44385;51.992;4.206;2023-05-16T13:55:53;3.75;;;0.88;;
58615;SDS011;44385;51.992;4.206;2023-05-16T13:58:19;2.97;;;1.08;;
58615;SDS011;44385;51.992;4.206;2023-05-16T14:00:47;5.53;;;1.08;;
58615;SDS011;44385;51.992;4.206;2023-05-16T14:03:16;3.13;;;1.10;;
58615;SDS011;44385;51.992;4.206;2023-05-16T14:05:43;3.60;;;1.38;;
58615;SDS011;44385;51.992;4.206;2023-05-16T14:08:09;3.88;;;0.90;;
58615;SDS011;44385;51.992;4.206;2023-05-16T14:10:35;2.00;;;0.82;;
58615;SDS011;44385;51.992;4.206;2023-05-16T14:13:02;2.30;;;1.02;;
58615;SDS011;44385;51.992;4.206;2023-05-16T14:15:28;2.28;;;1.08;;
58615;SDS011;44385;51.992;4.206;2023-05-16T14:17:56;4.43;;;1.00;;
58615;SDS011;44385;51.992;4.206;2023-05-16T14:20:23;2.43;;;1.17;;
58615;SDS011;44385;51.992;4.206;2023-05-16T14:22:49;3.47;;;1.20;;
58615;SDS011;44385;51.992;4.206;2023-05-16T14:25:17;3.50;;;0.98;;
58615;SDS011;44385;51.992;4.206;2023-05-16T14:27:43;3.13;;;1.10;;
58615;SDS011;44385;51.992;4.206;2023-05-16T14:30:10;3.00;;;1.30;;
58615;SDS011;44385;51.992;4.206;2023-05-16T14:32:37;4.97;;;1.17;;
58615;SDS011;44385;51.992;4.206;2023-05-16T14:35:05;3.72;;;1.50;;
58615;SDS011;44385;51.992;4.206;2023-05-16T14:37:33;4.00;;;1.48;;
58615;SDS011;44385;51.992;4.206;2023-05-16T14:39:59;3.33;;;1.13;;
58615;SDS011;44385;51.992;4.206;2023-05-16T14:42:26;5.30;;;1.15;;
58615;SDS011;44385;51.992;4.206;2023-05-16T14:44:53;7.93;;;1.70;;
58615;SDS011;44385;51.992;4.206;2023-05-16T14:47:19;3.55;;;1.38;;